Metar Cercanos

 

LEPA - Palma De Mallorc, Spain
Distance from station: ONO 38km
Actualización: Wed, 20-Jan-2021 1:30am CET
Parcialmente nuboso
Parcialmente nuboso
 Viento del NE
Viento: NE 7 km/h
Temperatura: 7°C
Sensación frio: 6°C
Rocío: 6°C
Humedad: 93%
Barómetro: 1021 hPa
Clouds: Parcialmente nuboso
Visibility: 10 km
Cloud details: Few Clouds 488 m
Parcialmente nuboso 610 m
2021/01/20 00:30 LEPA 200030Z 05004KT 9999 FEW016 SCT020 07/06 Q1021 NOSIG
LEMH - Mahon/Menorca Is, Spain
Distance from station: ENE 105km
Actualización: Wed, 20-Jan-2021 1:30am CET
Few Clouds
Few Clouds
 Viento del S
Viento: S 15 km/h
Temperatura: 11°C
Rocío: 7°C
Humedad: 77%
Barómetro: 1021 hPa
Clouds: Few Clouds
Visibility: 10 km
Cloud details: Few Clouds 701 m
2021/01/20 00:30 LEMH 200030Z 17008KT 140V200 9999 FEW023 11/07 Q1021
 
LEIB - Ibiza/Es Codola, Spain
Distance from station: OSO 165km
Actualización: Wed, 20-Jan-2021 1:30am CET
Muy nuboso
Muy nuboso
 Viento del SSO
Viento: SSO 11 km/h
Temperatura: 13°C
Rocío: 10°C
Humedad: 82%
Barómetro: 1020 hPa
Clouds: Muy nuboso
Visibility: 10 km
Cloud details: Muy nuboso 396 m
2021/01/20 00:30 LEIB 200030Z AUTO 21006KT 9999 BKN013/// 13/10 Q1020
LEBL - Barcelona Airpor, Spain
Distance from station: NNO 225km
Actualización: Wed, 20-Jan-2021 1:30am CET
Muy nuboso
Muy nuboso
 Viento del NNO
Viento: NNO 7 km/h
Temperatura: 9°C
Sensación frio: 8°C
Rocío: 6°C
Humedad: 82%
Barómetro: 1019 hPa
Clouds: Muy nuboso
Visibility: 10 km
Cloud details: Few Clouds 457 m
Muy nuboso 914 m
2021/01/20 00:30 LEBL 200030Z 33004KT 9999 FEW015 BKN030 09/06 Q1019 NOSIG
 
LEVC - Valencia (civ/Mi, Spain
Distance from station: NO 188km
Actualización: Wed, 20-Jan-2021 1:30am CET
Parcialmente nuboso
Parcialmente nuboso
 Viento del ONO
Viento: ONO 6 km/h
Temperatura: 4°C
Rocío: 3°C
Humedad: 93%
Barómetro: 1019 hPa
Clouds: Parcialmente nuboso
Visibility: 7 km
2021/01/20 00:30 LEVC 200030Z 30003KT 7000 NSC 04/03 Q1019 NOSIG
LEGE - Gerona/Costa Bra, Spain
Distance from station: N 276km
Actualización: Wed, 20-Jan-2021 1:30am CET
Despejado
Despejado
 Viento del SSO
Viento: SSO 19 km/h
Temperatura: 7°C
Sensación frio: 4°C
Rocío: 5°C
Humedad: 87%
Barómetro: 1018 hPa
Resumen: Despejado
Visibility: greater than 10 km
2021/01/20 00:30 LEGE 200030Z 20010KT CAVOK 07/05 Q1018
 
LEAL - Alicante/El Alte, Spain
Distance from station: OSO 344km
Actualización: Wed, 20-Jan-2021 1:30am CET
Parcialmente nuboso
Parcialmente nuboso
 Viento del calm
Viento: Calma
Temperatura: 6°C
Rocío: 5°C
Humedad: 93%
Barómetro: 1020 hPa
Clouds: Parcialmente nuboso
Visibility: 8 km
2021/01/20 00:30 LEAL 200030Z 00000KT 8000 NSC 06/05 Q1020 NOSIG
LEAM - Almeria Airport, Spain
Distance from station: SSO 56km
Actualización: Wed, 20-Jan-2021 1:30am CET

 Viento del varies
Viento: varies 4 km/h
Temperatura: 9°C
Rocío: 8°C
Humedad: 94%
Barómetro: 1021 hPa
Visibility: 10 km
2021/01/20 00:30 LEAM 200030Z AUTO VRB02KT 9999 ////// 09/08 Q1021
 
LEZG - Zaragoza (mil/Ci, Spain
Distance from station: NO 431km
Actualización: Wed, 20-Jan-2021 1:30am CET
Parcialmente nuboso
Parcialmente nuboso
 Viento del E
Viento: E 11 km/h
Temperatura: 3°C
Sensación frio: 0°C
Rocío: 2°C
Humedad: 93%
Barómetro: 1017 hPa
Clouds: Parcialmente nuboso
Visibility: 7 km
2021/01/20 00:30 LEZG 200030Z 09006KT 7000 NSC 03/02 Q1017
LEMD - Madrid/Barajas, Spain
Distance from station: ONO 234km
Actualización: Wed, 20-Jan-2021 1:30am CET
Parcialmente nuboso
Parcialmente nuboso
 Viento del N
Viento: N 4 km/h
Temperatura: -2°C
Rocío: -3°C
Humedad: 93%
Barómetro: 1018 hPa
Clouds: Parcialmente nuboso
Visibility: 6 km
2021/01/20 00:30 LEMD 200030Z 35002KT 6000 NSC M02/M03 Q1018 NOSIG
 
LEGR - Granada Airport, Spain
Distance from station: OSO 62km
Actualización: Wed, 20-Jan-2021 1:30am CET
Despejado
Despejado
 Viento del varies
Viento: varies 4 km/h
Temperatura: -2°C
Rocío: -3°C
Humedad: 93%
Barómetro: 1021 hPa
Resumen: Despejado
Visibility: greater than 10 km
2021/01/20 00:30 LEGR 200030Z VRB02KT CAVOK M02/M03 Q1021
LEMG - Malaga (civ/Mil), Spain
Distance from station: OSO 227km
Actualización: Wed, 20-Jan-2021 1:30am CET
Few Clouds
Few Clouds
 Viento del NO
Viento: NO 6 km/h
Temperatura: 6°C
Rocío: 5°C
Humedad: 93%
Barómetro: 1022 hPa
Clouds: Few Clouds
Visibility: 8 km
Cloud details: Few Clouds 549 m
2021/01/20 00:30 LEMG 200030Z 31003KT 8000 FEW018 06/05 Q1022 NOSIG
 
LEZL - Sevilla (civ/Mil, Spain
Distance from station: S 318km
Actualización: Wed, 20-Jan-2021 1:30am CET
Cubierto
Cubierto
 Viento del S
Viento: S 7 km/h
Temperatura: 12°C
Rocío: 8°C
Humedad: 77%
Barómetro: 1020 hPa
Clouds: Cubierto
Visibility: 10 km
Cloud details: Cubierto 1372 m
2021/01/20 00:30 LEZL 200030Z AUTO 17004KT 140V210 9999 OVC045 12/08 Q1020
LEVT - Vitoria, Spain
Distance from station: NO 226km
Actualización: Wed, 20-Jan-2021 1:30am CET
Despejado
Despejado
 Viento del OSO
Viento: OSO 19 km/h
Temperatura: 3°C
Sensación frio: -2°C
Rocío: 2°C
Humedad: 93%
Barómetro: 1013 hPa
Resumen: Despejado
Visibility: greater than 10 km
2021/01/20 00:30 LEVT 200030Z 24010KT CAVOK 03/02 Q1013
 
LEBB - Bilbao/Sondica, Spain
Distance from station: NNO 235km
Actualización: Wed, 20-Jan-2021 1:30am CET
Despejado
Despejado
 Viento del E
Viento: E 24 km/h
Temperatura: 13°C
Rocío: 1°C
Humedad: 44%
Barómetro: 1009 hPa
Resumen: Despejado
Visibility: greater than 10 km
2021/01/20 00:30 LEBB 200030Z AUTO 09013KT 060V140 CAVOK 13/01 Q1009
LESO - San Sebastian/Fu, Spain
Distance from station: N 231km
Actualización: Wed, 20-Jan-2021 1:30am CET
Despejado
Despejado
 Viento del SSE
Viento: SSE 26 km/h, Racha: 44 km/h
Temperatura: 15°C
Rocío: 1°C
Humedad: 39%
Barómetro: 1010 hPa
Resumen: Despejado
Visibility: greater than 10 km
2021/01/20 00:30 LESO 200030Z AUTO 16014G24KT 130V190 CAVOK 15/01 Q1010
 
LEVD - Valladolid(Mil/C, Spain
Distance from station: ONO 239km
Actualización: Wed, 20-Jan-2021 1:30am CET
Mist, Parcialmente nuboso
Mist, Parcialmente nuboso
 Viento del SE
Viento: SE 9 km/h
Temperatura: 0°C
Sensación frio: -3°C
Rocío: 0°C
Humedad: 100%
Barómetro: 1014 hPa
Resumen: Mist
Clouds: Parcialmente nuboso
Visibility: 4 km
2021/01/20 00:30 LEVD 200030Z AUTO 14005KT 3800 BR NSC 00/M00 Q1014
LESA - Salamanca (civ/M, Spain
Distance from station: ONO 349km
Actualización: Wed, 20-Jan-2021 1:30am CET
Despejado
Despejado
 Viento del SSO
Viento: SSO 17 km/h
Temperatura: 5°C
Sensación frio: 2°C
Rocío: 1°C
Humedad: 76%
Barómetro: 1013 hPa
Resumen: Despejado
Visibility: greater than 10 km
2021/01/20 00:30 LESA 200030Z AUTO 21009KT 180V240 CAVOK 05/01 Q1013
 
LEXJ - Santander/Paraya, Spain
Distance from station: NNO 247km
Actualización: Wed, 20-Jan-2021 1:30am CET
Despejado
Despejado
 Viento del SSO
Viento: SSO 48 km/h, Racha: 80 km/h
Temperatura: 13°C
Rocío: 2°C
Humedad: 47%
Barómetro: 1007 hPa
Resumen: Despejado
Visibility: greater than 10 km
2021/01/20 00:30 LEXJ 200030Z AUTO 21026G43KT 170V250 CAVOK 13/02 Q1007
LEAS - Asturias/Aviles, Spain
Distance from station: NO 214km
Actualización: Wed, 20-Jan-2021 1:30am CET
Despejado
Despejado
 Viento del S
Viento: S 11 km/h
Temperatura: 12°C
Rocío: 1°C
Humedad: 47%
Barómetro: 1004 hPa
Resumen: Despejado
Visibility: greater than 10 km
2021/01/20 00:30 LEAS 200030Z AUTO 17006KT CAVOK 12/01 Q1004
 
LECO - La Coruna/Alvedr, Spain
Distance from station: ONO 222km
Actualización: Wed, 20-Jan-2021 1:30am CET
Lluvia débil, Parcialmente nuboso
Lluvia débil, Parcialmente nuboso
 Viento del S
Viento: S 26 km/h, Racha: 54 km/h
Temperatura: 10°C
Sensación frio: 7°C
Rocío: 8°C
Humedad: 88%
Barómetro: 1002 hPa
Resumen: Lluvia débil
Clouds: Parcialmente nuboso
Visibility: 10 km
Cloud details: Parcialmente nuboso 1006 m
2021/01/20 00:30 LECO 200030Z AUTO 17014G29KT 110V200 9999 -RA SCT033 10/08 Q1002
LEVX - Vigo/Peinador, Spain
Distance from station: O 214km
Actualización: Wed, 20-Jan-2021 1:30am CET
Lluvia, Mist, Muy nuboso
Lluvia, Mist, Muy nuboso
 Viento del S
Viento: S 26 km/h, Racha: 44 km/h
Temperatura: 9°C
Sensación frio: 6°C
Rocío: 8°C
Humedad: 94%
Barómetro: 1005 hPa
Resumen: Lluvia, Mist
Clouds: Muy nuboso
Visibility: 5 km
Cloud details: Parcialmente nuboso 152 m
Parcialmente nuboso 305 m
Muy nuboso 549 m
2021/01/20 00:30 LEVX 200030Z 19014G24KT 140V230 4500 RA BR SCT005 SCT010 BKN018 09/08 Q1005 TEMPO 2000 RA BKN010